sensor_id;sensor_type;location;lat;lon;timestamp;P1;durP1;ratioP1;P2;durP2;ratioP2
47882;SDS011;37739;50.350;7.578;2022-12-29T00:01:34;4.30;;;1.40;;
47882;SDS011;37739;50.350;7.578;2022-12-29T00:04:01;2.07;;;1.20;;
47882;SDS011;37739;50.350;7.578;2022-12-29T00:06:26;1.90;;;1.30;;
47882;SDS011;37739;50.350;7.578;2022-12-29T00:08:52;1.40;;;1.30;;
47882;SDS011;37739;50.350;7.578;2022-12-29T00:11:21;2.43;;;1.50;;
47882;SDS011;37739;50.350;7.578;2022-12-29T00:13:50;1.73;;;1.10;;
47882;SDS011;37739;50.350;7.578;2022-12-29T00:16:35;2.30;;;1.37;;
47882;SDS011;37739;50.350;7.578;2022-12-29T00:19:02;1.17;;;0.87;;
47882;SDS011;37739;50.350;7.578;2022-12-29T00:21:33;1.37;;;1.20;;
47882;SDS011;37739;50.350;7.578;2022-12-29T00:24:18;1.73;;;1.17;;
47882;SDS011;37739;50.350;7.578;2022-12-29T00:26:55;2.00;;;1.37;;
47882;SDS011;37739;50.350;7.578;2022-12-29T00:29:43;3.73;;;1.37;;
47882;SDS011;37739;50.350;7.578;2022-12-29T00:32:27;2.07;;;1.87;;
47882;SDS011;37739;50.350;7.578;2022-12-29T00:35:12;2.40;;;2.00;;
47882;SDS011;37739;50.350;7.578;2022-12-29T00:37:42;1.90;;;1.53;;
47882;SDS011;37739;50.350;7.578;2022-12-29T00:40:29;1.30;;;1.20;;
47882;SDS011;37739;50.350;7.578;2022-12-29T00:43:13;1.13;;;0.87;;
47882;SDS011;37739;50.350;7.578;2022-12-29T00:46:02;1.47;;;1.37;;
47882;SDS011;37739;50.350;7.578;2022-12-29T00:48:34;1.83;;;1.30;;
47882;SDS011;37739;50.350;7.578;2022-12-29T00:51:18;2.33;;;1.40;;
47882;SDS011;37739;50.350;7.578;2022-12-29T00:53:46;1.20;;;1.10;;
47882;SDS011;37739;50.350;7.578;2022-12-29T00:56:14;1.20;;;1.10;;
47882;SDS011;37739;50.350;7.578;2022-12-29T00:58:39;1.27;;;1.17;;
47882;SDS011;37739;50.350;7.578;2022-12-29T01:01:07;1.10;;;1.00;;
47882;SDS011;37739;50.350;7.578;2022-12-29T01:03:36;1.07;;;0.90;;
47882;SDS011;37739;50.350;7.578;2022-12-29T01:06:03;1.50;;;1.00;;
47882;SDS011;37739;50.350;7.578;2022-12-29T01:08:30;1.20;;;0.90;;
47882;SDS011;37739;50.350;7.578;2022-12-29T01:10:59;0.90;;;0.80;;
47882;SDS011;37739;50.350;7.578;2022-12-29T01:13:26;1.30;;;1.17;;
47882;SDS011;37739;50.350;7.578;2022-12-29T01:15:54;1.20;;;1.00;;
47882;SDS011;37739;50.350;7.578;2022-12-29T01:18:20;1.40;;;0.80;;
47882;SDS011;37739;50.350;7.578;2022-12-29T01:20:48;1.40;;;0.90;;
47882;SDS011;37739;50.350;7.578;2022-12-29T01:23:14;1.60;;;0.80;;
47882;SDS011;37739;50.350;7.578;2022-12-29T01:25:39;1.00;;;0.80;;
47882;SDS011;37739;50.350;7.578;2022-12-29T01:28:07;1.00;;;0.80;;
47882;SDS011;37739;50.350;7.578;2022-12-29T01:30:33;1.10;;;0.90;;
47882;SDS011;37739;50.350;7.578;2022-12-29T01:33:01;1.00;;;0.80;;
47882;SDS011;37739;50.350;7.578;2022-12-29T01:35:32;0.80;;;0.73;;
47882;SDS011;37739;50.350;7.578;2022-12-29T01:37:57;1.40;;;0.80;;
47882;SDS011;37739;50.350;7.578;2022-12-29T01:40:22;2.07;;;0.70;;
47882;SDS011;37739;50.350;7.578;2022-12-29T01:42:48;2.10;;;1.00;;
47882;SDS011;37739;50.350;7.578;2022-12-29T01:45:14;1.57;;;0.80;;
47882;SDS011;37739;50.350;7.578;2022-12-29T01:47:46;1.07;;;0.83;;
47882;SDS011;37739;50.350;7.578;2022-12-29T01:50:22;1.33;;;0.80;;
47882;SDS011;37739;50.350;7.578;2022-12-29T01:55:39;0.90;;;0.70;;
47882;SDS011;37739;50.350;7.578;2022-12-29T01:58:07;1.30;;;1.07;;
47882;SDS011;37739;50.350;7.578;2022-12-29T02:00:34;1.20;;;0.90;;
47882;SDS011;37739;50.350;7.578;2022-12-29T02:03:02;1.07;;;0.93;;
47882;SDS011;37739;50.350;7.578;2022-12-29T02:05:42;1.10;;;0.80;;
47882;SDS011;37739;50.350;7.578;2022-12-29T02:08:28;1.00;;;0.77;;
47882;SDS011;37739;50.350;7.578;2022-12-29T02:10:57;1.27;;;1.00;;
47882;SDS011;37739;50.350;7.578;2022-12-29T02:13:24;1.37;;;1.27;;
47882;SDS011;37739;50.350;7.578;2022-12-29T02:32:03;1.67;;;0.97;;
47882;SDS011;37739;50.350;7.578;2022-12-29T02:37:31;1.30;;;1.00;;
47882;SDS011;37739;50.350;7.578;2022-12-29T02:45:36;1.27;;;1.07;;
47882;SDS011;37739;50.350;7.578;2022-12-29T02:50:47;2.03;;;0.93;;
47882;SDS011;37739;50.350;7.578;2022-12-29T02:53:25;1.00;;;0.70;;
47882;SDS011;37739;50.350;7.578;2022-12-29T02:56:13;1.00;;;0.80;;
47882;SDS011;37739;50.350;7.578;2022-12-29T02:58:44;1.10;;;0.70;;
47882;SDS011;37739;50.350;7.578;2022-12-29T03:06:55;1.13;;;0.80;;
47882;SDS011;37739;50.350;7.578;2022-12-29T03:11:58;1.43;;;0.70;;
47882;SDS011;37739;50.350;7.578;2022-12-29T03:17:37;1.20;;;0.90;;
47882;SDS011;37739;50.350;7.578;2022-12-29T03:20:13;0.97;;;0.73;;
47882;SDS011;37739;50.350;7.578;2022-12-29T03:23:00;1.23;;;0.80;;
47882;SDS011;37739;50.350;7.578;2022-12-29T03:25:29;1.10;;;0.90;;
47882;SDS011;37739;50.350;7.578;2022-12-29T03:28:02;1.10;;;0.80;;
47882;SDS011;37739;50.350;7.578;2022-12-29T03:30:38;2.80;;;1.00;;
47882;SDS011;37739;50.350;7.578;2022-12-29T03:33:07;2.23;;;1.00;;
47882;SDS011;37739;50.350;7.578;2022-12-29T03:35:37;1.77;;;1.17;;
47882;SDS011;37739;50.350;7.578;2022-12-29T03:38:16;2.03;;;1.07;;
47882;SDS011;37739;50.350;7.578;2022-12-29T03:40:55;1.17;;;1.00;;
47882;SDS011;37739;50.350;7.578;2022-12-29T03:43:26;2.30;;;1.13;;
47882;SDS011;37739;50.350;7.578;2022-12-29T03:45:52;1.30;;;1.00;;
47882;SDS011;37739;50.350;7.578;2022-12-29T03:48:20;1.30;;;0.93;;
47882;SDS011;37739;50.350;7.578;2022-12-29T03:50:48;1.97;;;1.30;;
47882;SDS011;37739;50.350;7.578;2022-12-29T03:53:15;1.77;;;1.13;;
47882;SDS011;37739;50.350;7.578;2022-12-29T03:55:43;2.60;;;1.10;;
47882;SDS011;37739;50.350;7.578;2022-12-29T03:58:11;2.07;;;1.40;;
47882;SDS011;37739;50.350;7.578;2022-12-29T04:00:36;1.70;;;1.13;;
47882;SDS011;37739;50.350;7.578;2022-12-29T04:03:01;1.10;;;1.00;;
47882;SDS011;37739;50.350;7.578;2022-12-29T04:05:29;1.50;;;1.10;;
47882;SDS011;37739;50.350;7.578;2022-12-29T04:07:56;2.80;;;1.20;;
47882;SDS011;37739;50.350;7.578;2022-12-29T04:10:23;1.70;;;1.20;;
47882;SDS011;37739;50.350;7.578;2022-12-29T04:12:56;1.90;;;1.30;;
47882;SDS011;37739;50.350;7.578;2022-12-29T04:15:23;1.63;;;1.53;;
47882;SDS011;37739;50.350;7.578;2022-12-29T04:17:51;1.40;;;1.27;;
47882;SDS011;37739;50.350;7.578;2022-12-29T04:20:19;2.27;;;1.23;;
47882;SDS011;37739;50.350;7.578;2022-12-29T04:23:03;1.83;;;1.50;;
47882;SDS011;37739;50.350;7.578;2022-12-29T04:25:30;1.83;;;1.67;;
47882;SDS011;37739;50.350;7.578;2022-12-29T04:27:59;2.07;;;1.27;;
47882;SDS011;37739;50.350;7.578;2022-12-29T04:30:24;1.20;;;1.10;;
47882;SDS011;37739;50.350;7.578;2022-12-29T04:32:53;1.60;;;1.03;;
47882;SDS011;37739;50.350;7.578;2022-12-29T04:35:21;5.30;;;1.40;;
47882;SDS011;37739;50.350;7.578;2022-12-29T04:37:47;2.00;;;1.40;;
47882;SDS011;37739;50.350;7.578;2022-12-29T04:40:12;2.80;;;1.20;;
47882;SDS011;37739;50.350;7.578;2022-12-29T04:42:37;2.70;;;1.17;;
47882;SDS011;37739;50.350;7.578;2022-12-29T04:45:05;1.67;;;1.27;;
47882;SDS011;37739;50.350;7.578;2022-12-29T04:47:31;2.07;;;1.10;;
47882;SDS011;37739;50.350;7.578;2022-12-29T04:49:56;2.70;;;1.70;;
47882;SDS011;37739;50.350;7.578;2022-12-29T04:52:22;1.10;;;1.00;;
47882;SDS011;37739;50.350;7.578;2022-12-29T04:54:47;1.57;;;1.13;;
47882;SDS011;37739;50.350;7.578;2022-12-29T04:57:12;1.40;;;1.27;;
47882;SDS011;37739;50.350;7.578;2022-12-29T04:59:38;2.83;;;1.37;;
47882;SDS011;37739;50.350;7.578;2022-12-29T05:02:03;1.57;;;1.20;;
47882;SDS011;37739;50.350;7.578;2022-12-29T05:04:28;3.80;;;1.37;;
47882;SDS011;37739;50.350;7.578;2022-12-29T05:06:56;2.70;;;1.30;;
47882;SDS011;37739;50.350;7.578;2022-12-29T05:09:21;1.43;;;1.10;;
47882;SDS011;37739;50.350;7.578;2022-12-29T05:11:46;2.17;;;1.10;;
47882;SDS011;37739;50.350;7.578;2022-12-29T05:14:12;2.20;;;1.27;;
47882;SDS011;37739;50.350;7.578;2022-12-29T05:16:37;1.77;;;1.03;;
47882;SDS011;37739;50.350;7.578;2022-12-29T05:19:02;1.20;;;1.00;;
47882;SDS011;37739;50.350;7.578;2022-12-29T05:21:28;2.30;;;1.10;;
47882;SDS011;37739;50.350;7.578;2022-12-29T05:23:53;1.40;;;0.97;;
47882;SDS011;37739;50.350;7.578;2022-12-29T05:26:23;1.60;;;0.90;;
47882;SDS011;37739;50.350;7.578;2022-12-29T05:28:49;1.00;;;0.90;;
47882;SDS011;37739;50.350;7.578;2022-12-29T05:31:14;2.33;;;0.90;;
47882;SDS011;37739;50.350;7.578;2022-12-29T05:33:39;2.27;;;1.20;;
47882;SDS011;37739;50.350;7.578;2022-12-29T05:36:05;2.00;;;1.00;;
47882;SDS011;37739;50.350;7.578;2022-12-29T05:38:32;1.70;;;1.20;;
47882;SDS011;37739;50.350;7.578;2022-12-29T05:40:59;1.60;;;0.90;;
47882;SDS011;37739;50.350;7.578;2022-12-29T05:43:25;3.10;;;1.20;;
47882;SDS011;37739;50.350;7.578;2022-12-29T05:45:55;1.30;;;1.00;;
47882;SDS011;37739;50.350;7.578;2022-12-29T05:48:22;2.63;;;1.00;;
47882;SDS011;37739;50.350;7.578;2022-12-29T05:50:50;4.03;;;1.47;;
47882;SDS011;37739;50.350;7.578;2022-12-29T05:53:16;1.80;;;1.10;;
47882;SDS011;37739;50.350;7.578;2022-12-29T05:55:46;1.67;;;1.30;;
47882;SDS011;37739;50.350;7.578;2022-12-29T05:58:12;5.43;;;1.50;;
47882;SDS011;37739;50.350;7.578;2022-12-29T06:00:41;1.53;;;1.20;;
47882;SDS011;37739;50.350;7.578;2022-12-29T06:03:09;2.40;;;1.30;;
47882;SDS011;37739;50.350;7.578;2022-12-29T06:05:39;1.30;;;1.03;;
47882;SDS011;37739;50.350;7.578;2022-12-29T06:08:07;1.80;;;1.40;;
47882;SDS011;37739;50.350;7.578;2022-12-29T06:10:32;1.30;;;1.20;;
47882;SDS011;37739;50.350;7.578;2022-12-29T06:13:00;1.30;;;1.00;;
47882;SDS011;37739;50.350;7.578;2022-12-29T06:15:25;1.30;;;1.00;;
47882;SDS011;37739;50.350;7.578;2022-12-29T06:17:53;2.30;;;1.20;;
47882;SDS011;37739;50.350;7.578;2022-12-29T06:20:18;1.20;;;1.10;;
47882;SDS011;37739;50.350;7.578;2022-12-29T06:22:44;2.13;;;1.37;;
47882;SDS011;37739;50.350;7.578;2022-12-29T06:25:12;1.97;;;1.57;;
47882;SDS011;37739;50.350;7.578;2022-12-29T06:27:40;4.03;;;1.23;;
47882;SDS011;37739;50.350;7.578;2022-12-29T06:30:06;1.20;;;1.10;;
47882;SDS011;37739;50.350;7.578;2022-12-29T06:32:34;1.50;;;1.10;;
47882;SDS011;37739;50.350;7.578;2022-12-29T06:35:00;2.00;;;1.20;;
47882;SDS011;37739;50.350;7.578;2022-12-29T06:37:26;3.43;;;1.30;;
47882;SDS011;37739;50.350;7.578;2022-12-29T06:39:54;2.47;;;1.23;;
47882;SDS011;37739;50.350;7.578;2022-12-29T06:42:19;2.03;;;1.00;;
47882;SDS011;37739;50.350;7.578;2022-12-29T06:44:47;1.30;;;0.90;;
47882;SDS011;37739;50.350;7.578;2022-12-29T06:47:12;1.50;;;0.90;;
47882;SDS011;37739;50.350;7.578;2022-12-29T06:49:40;1.00;;;0.80;;
47882;SDS011;37739;50.350;7.578;2022-12-29T06:52:05;2.10;;;1.10;;
47882;SDS011;37739;50.350;7.578;2022-12-29T06:54:30;3.43;;;1.00;;
47882;SDS011;37739;50.350;7.578;2022-12-29T06:56:56;1.43;;;0.90;;
47882;SDS011;37739;50.350;7.578;2022-12-29T06:59:25;1.10;;;0.90;;
47882;SDS011;37739;50.350;7.578;2022-12-29T07:01:52;1.30;;;0.80;;
47882;SDS011;37739;50.350;7.578;2022-12-29T07:04:18;1.23;;;0.77;;
47882;SDS011;37739;50.350;7.578;2022-12-29T07:06:43;1.70;;;1.20;;
47882;SDS011;37739;50.350;7.578;2022-12-29T07:09:09;2.07;;;1.00;;
47882;SDS011;37739;50.350;7.578;2022-12-29T07:11:37;2.90;;;1.10;;
47882;SDS011;37739;50.350;7.578;2022-12-29T07:14:02;4.10;;;1.30;;
47882;SDS011;37739;50.350;7.578;2022-12-29T07:16:28;1.50;;;1.20;;
47882;SDS011;37739;50.350;7.578;2022-12-29T07:18:55;1.97;;;1.33;;
47882;SDS011;37739;50.350;7.578;2022-12-29T07:21:24;2.03;;;1.40;;
47882;SDS011;37739;50.350;7.578;2022-12-29T07:23:53;2.20;;;1.20;;
47882;SDS011;37739;50.350;7.578;2022-12-29T07:26:20;1.57;;;1.20;;
47882;SDS011;37739;50.350;7.578;2022-12-29T07:28:46;2.20;;;1.70;;
47882;SDS011;37739;50.350;7.578;2022-12-29T07:31:16;5.00;;;1.90;;
47882;SDS011;37739;50.350;7.578;2022-12-29T07:33:45;2.77;;;1.20;;
47882;SDS011;37739;50.350;7.578;2022-12-29T07:36:14;2.77;;;1.23;;
47882;SDS011;37739;50.350;7.578;2022-12-29T07:38:43;1.80;;;1.50;;
47882;SDS011;37739;50.350;7.578;2022-12-29T07:41:11;1.90;;;1.70;;
47882;SDS011;37739;50.350;7.578;2022-12-29T07:43:37;1.77;;;1.30;;
47882;SDS011;37739;50.350;7.578;2022-12-29T07:46:02;2.10;;;1.23;;
47882;SDS011;37739;50.350;7.578;2022-12-29T07:48:30;2.23;;;1.37;;
47882;SDS011;37739;50.350;7.578;2022-12-29T07:50:58;1.40;;;1.20;;
47882;SDS011;37739;50.350;7.578;2022-12-29T07:53:26;1.30;;;1.17;;
47882;SDS011;37739;50.350;7.578;2022-12-29T07:55:53;1.73;;;1.10;;
47882;SDS011;37739;50.350;7.578;2022-12-29T07:58:19;1.30;;;1.00;;
47882;SDS011;37739;50.350;7.578;2022-12-29T08:00:44;1.97;;;1.13;;
47882;SDS011;37739;50.350;7.578;2022-12-29T08:03:09;2.43;;;1.00;;
47882;SDS011;37739;50.350;7.578;2022-12-29T08:05:37;1.07;;;0.97;;
47882;SDS011;37739;50.350;7.578;2022-12-29T08:08:05;1.60;;;1.10;;
47882;SDS011;37739;50.350;7.578;2022-12-29T08:10:32;2.80;;;2.13;;
47882;SDS011;37739;50.350;7.578;2022-12-29T08:12:57;5.10;;;1.83;;
47882;SDS011;37739;50.350;7.578;2022-12-29T08:15:25;2.77;;;1.80;;
47882;SDS011;37739;50.350;7.578;2022-12-29T08:17:53;2.53;;;2.33;;
47882;SDS011;37739;50.350;7.578;2022-12-29T08:20:18;1.53;;;1.33;;
47882;SDS011;37739;50.350;7.578;2022-12-29T08:22:46;1.20;;;1.00;;
47882;SDS011;37739;50.350;7.578;2022-12-29T08:25:16;0.90;;;0.70;;
47882;SDS011;37739;50.350;7.578;2022-12-29T08:27:44;0.80;;;0.50;;
47882;SDS011;37739;50.350;7.578;2022-12-29T08:30:12;0.87;;;0.60;;
47882;SDS011;37739;50.350;7.578;2022-12-29T08:32:41;1.20;;;0.60;;
47882;SDS011;37739;50.350;7.578;2022-12-29T08:35:09;0.90;;;0.80;;
47882;SDS011;37739;50.350;7.578;2022-12-29T08:37:34;2.00;;;0.70;;
47882;SDS011;37739;50.350;7.578;2022-12-29T08:39:59;1.10;;;0.70;;
47882;SDS011;37739;50.350;7.578;2022-12-29T08:42:30;0.83;;;0.80;;
47882;SDS011;37739;50.350;7.578;2022-12-29T08:45:00;1.20;;;0.77;;
47882;SDS011;37739;50.350;7.578;2022-12-29T08:47:26;1.53;;;0.80;;
47882;SDS011;37739;50.350;7.578;2022-12-29T08:49:56;1.00;;;0.70;;
47882;SDS011;37739;50.350;7.578;2022-12-29T08:52:22;1.77;;;0.90;;
47882;SDS011;37739;50.350;7.578;2022-12-29T08:54:49;0.90;;;0.77;;
47882;SDS011;37739;50.350;7.578;2022-12-29T08:57:15;1.27;;;1.10;;
47882;SDS011;37739;50.350;7.578;2022-12-29T08:59:45;1.00;;;0.73;;
47882;SDS011;37739;50.350;7.578;2022-12-29T09:02:10;0.90;;;0.77;;
47882;SDS011;37739;50.350;7.578;2022-12-29T09:04:38;1.10;;;0.83;;
47882;SDS011;37739;50.350;7.578;2022-12-29T09:07:06;1.20;;;0.80;;
47882;SDS011;37739;50.350;7.578;2022-12-29T09:09:31;1.20;;;0.60;;
47882;SDS011;37739;50.350;7.578;2022-12-29T09:11:57;0.83;;;0.60;;
47882;SDS011;37739;50.350;7.578;2022-12-29T09:14:23;1.47;;;0.77;;
47882;SDS011;37739;50.350;7.578;2022-12-29T09:16:51;0.90;;;0.70;;
47882;SDS011;37739;50.350;7.578;2022-12-29T09:19:38;1.30;;;0.90;;
47882;SDS011;37739;50.350;7.578;2022-12-29T09:22:03;1.40;;;1.03;;
47882;SDS011;37739;50.350;7.578;2022-12-29T09:24:31;1.60;;;1.20;;
47882;SDS011;37739;50.350;7.578;2022-12-29T09:26:59;1.00;;;0.80;;
47882;SDS011;37739;50.350;7.578;2022-12-29T09:29:24;1.30;;;0.97;;
47882;SDS011;37739;50.350;7.578;2022-12-29T09:31:55;1.00;;;0.80;;
47882;SDS011;37739;50.350;7.578;2022-12-29T09:34:20;1.50;;;0.90;;
47882;SDS011;37739;50.350;7.578;2022-12-29T09:36:45;2.73;;;0.70;;
47882;SDS011;37739;50.350;7.578;2022-12-29T09:39:12;1.43;;;1.00;;
47882;SDS011;37739;50.350;7.578;2022-12-29T09:41:39;1.13;;;0.80;;
47882;SDS011;37739;50.350;7.578;2022-12-29T09:46:56;1.10;;;0.80;;
47882;SDS011;37739;50.350;7.578;2022-12-29T09:51:55;1.13;;;0.50;;
47882;SDS011;37739;50.350;7.578;2022-12-29T09:54:31;1.00;;;0.60;;
47882;SDS011;37739;50.350;7.578;2022-12-29T09:57:04;1.57;;;0.70;;
47882;SDS011;37739;50.350;7.578;2022-12-29T09:59:42;1.10;;;0.70;;
47882;SDS011;37739;50.350;7.578;2022-12-29T10:02:17;3.30;;;1.07;;
47882;SDS011;37739;50.350;7.578;2022-12-29T10:04:54;1.63;;;1.00;;
47882;SDS011;37739;50.350;7.578;2022-12-29T10:07:33;1.50;;;1.00;;
47882;SDS011;37739;50.350;7.578;2022-12-29T10:10:31;1.93;;;1.50;;
47882;SDS011;37739;50.350;7.578;2022-12-29T10:21:40;9.00;;;5.20;;
47882;SDS011;37739;50.350;7.578;2022-12-29T10:24:29;6.33;;;4.10;;
47882;SDS011;37739;50.350;7.578;2022-12-29T10:26:57;6.70;;;5.00;;
47882;SDS011;37739;50.350;7.578;2022-12-29T10:29:28;5.00;;;3.47;;
47882;SDS011;37739;50.350;7.578;2022-12-29T10:32:04;2.87;;;2.67;;
47882;SDS011;37739;50.350;7.578;2022-12-29T10:34:39;2.33;;;2.00;;
47882;SDS011;37739;50.350;7.578;2022-12-29T10:44:53;1.77;;;1.23;;
47882;SDS011;37739;50.350;7.578;2022-12-29T10:47:23;2.00;;;1.10;;
47882;SDS011;37739;50.350;7.578;2022-12-29T10:49:51;1.57;;;1.20;;
47882;SDS011;37739;50.350;7.578;2022-12-29T10:52:20;1.47;;;1.30;;
47882;SDS011;37739;50.350;7.578;2022-12-29T10:57:38;2.97;;;1.07;;
47882;SDS011;37739;50.350;7.578;2022-12-29T11:00:16;1.60;;;0.80;;
47882;SDS011;37739;50.350;7.578;2022-12-29T11:08:04;1.80;;;1.03;;
47882;SDS011;37739;50.350;7.578;2022-12-29T11:10:40;2.37;;;1.07;;
47882;SDS011;37739;50.350;7.578;2022-12-29T11:15:44;1.80;;;0.90;;
47882;SDS011;37739;50.350;7.578;2022-12-29T11:20:52;2.73;;;1.10;;
47882;SDS011;37739;50.350;7.578;2022-12-29T11:23:24;1.93;;;0.90;;
47882;SDS011;37739;50.350;7.578;2022-12-29T11:28:46;2.93;;;1.30;;
47882;SDS011;37739;50.350;7.578;2022-12-29T11:31:30;3.63;;;2.20;;
47882;SDS011;37739;50.350;7.578;2022-12-29T11:33:55;4.87;;;2.50;;
47882;SDS011;37739;50.350;7.578;2022-12-29T11:36:25;3.80;;;1.90;;
47882;SDS011;37739;50.350;7.578;2022-12-29T11:38:54;3.93;;;3.23;;
47882;SDS011;37739;50.350;7.578;2022-12-29T11:41:24;2.47;;;1.47;;
47882;SDS011;37739;50.350;7.578;2022-12-29T11:43:53;2.77;;;1.93;;
47882;SDS011;37739;50.350;7.578;2022-12-29T11:46:28;3.10;;;2.80;;
47882;SDS011;37739;50.350;7.578;2022-12-29T11:48:56;3.20;;;1.90;;
47882;SDS011;37739;50.350;7.578;2022-12-29T11:51:26;3.87;;;1.80;;
47882;SDS011;37739;50.350;7.578;2022-12-29T11:53:56;7.50;;;1.60;;
47882;SDS011;37739;50.350;7.578;2022-12-29T11:56:36;3.53;;;1.20;;
47882;SDS011;37739;50.350;7.578;2022-12-29T11:59:34;3.73;;;1.30;;
47882;SDS011;37739;50.350;7.578;2022-12-29T12:02:27;2.20;;;1.00;;
47882;SDS011;37739;50.350;7.578;2022-12-29T12:05:02;2.73;;;1.87;;
47882;SDS011;37739;50.350;7.578;2022-12-29T12:10:14;3.90;;;1.27;;
47882;SDS011;37739;50.350;7.578;2022-12-29T12:12:50;5.43;;;1.63;;
47882;SDS011;37739;50.350;7.578;2022-12-29T12:15:27;3.50;;;1.40;;
47882;SDS011;37739;50.350;7.578;2022-12-29T12:18:01;3.43;;;1.23;;
47882;SDS011;37739;50.350;7.578;2022-12-29T12:20:38;1.60;;;1.30;;
47882;SDS011;37739;50.350;7.578;2022-12-29T12:23:22;5.07;;;1.73;;
47882;SDS011;37739;50.350;7.578;2022-12-29T12:29:08;3.10;;;1.13;;
47882;SDS011;37739;50.350;7.578;2022-12-29T12:31:50;1.90;;;1.00;;
47882;SDS011;37739;50.350;7.578;2022-12-29T12:34:26;2.27;;;1.10;;
47882;SDS011;37739;50.350;7.578;2022-12-29T12:39:47;1.37;;;0.97;;
47882;SDS011;37739;50.350;7.578;2022-12-29T12:45:29;4.30;;;1.20;;
47882;SDS011;37739;50.350;7.578;2022-12-29T13:18:37;3.30;;;1.20;;
47882;SDS011;37739;50.350;7.578;2022-12-29T13:27:16;4.97;;;3.20;;
47882;SDS011;37739;50.350;7.578;2022-12-29T13:29:57;4.80;;;2.73;;
47882;SDS011;37739;50.350;7.578;2022-12-29T13:35:16;3.87;;;1.80;;
47882;SDS011;37739;50.350;7.578;2022-12-29T13:37:50;4.33;;;1.90;;
47882;SDS011;37739;50.350;7.578;2022-12-29T13:40:22;3.67;;;1.70;;
47882;SDS011;37739;50.350;7.578;2022-12-29T13:42:50;3.73;;;1.50;;
47882;SDS011;37739;50.350;7.578;2022-12-29T13:45:24;4.10;;;1.20;;
47882;SDS011;37739;50.350;7.578;2022-12-29T13:48:01;4.23;;;1.60;;
47882;SDS011;37739;50.350;7.578;2022-12-29T13:50:35;4.23;;;1.60;;
47882;SDS011;37739;50.350;7.578;2022-12-29T13:53:11;3.63;;;1.27;;
47882;SDS011;37739;50.350;7.578;2022-12-29T13:55:46;2.57;;;1.23;;
47882;SDS011;37739;50.350;7.578;2022-12-29T14:00:55;1.80;;;1.00;;
47882;SDS011;37739;50.350;7.578;2022-12-29T14:06:26;2.23;;;1.10;;
47882;SDS011;37739;50.350;7.578;2022-12-29T14:08:52;3.53;;;1.40;;
47882;SDS011;37739;50.350;7.578;2022-12-29T14:11:22;2.23;;;0.90;;
47882;SDS011;37739;50.350;7.578;2022-12-29T14:13:54;4.37;;;1.37;;
47882;SDS011;37739;50.350;7.578;2022-12-29T14:18:54;1.40;;;1.00;;
47882;SDS011;37739;50.350;7.578;2022-12-29T14:21:22;4.70;;;1.80;;
47882;SDS011;37739;50.350;7.578;2022-12-29T14:23:57;4.00;;;2.20;;
47882;SDS011;37739;50.350;7.578;2022-12-29T14:26:45;5.90;;;1.80;;
47882;SDS011;37739;50.350;7.578;2022-12-29T14:31:48;3.03;;;1.50;;
47882;SDS011;37739;50.350;7.578;2022-12-29T14:37:22;2.90;;;1.83;;
47882;SDS011;37739;50.350;7.578;2022-12-29T14:39:40;2.40;;;0.93;;
47882;SDS011;37739;50.350;7.578;2022-12-29T14:42:15;2.63;;;1.30;;
47882;SDS011;37739;50.350;7.578;2022-12-29T14:44:51;5.67;;;1.30;;
47882;SDS011;37739;50.350;7.578;2022-12-29T14:49:54;5.93;;;2.60;;
47882;SDS011;37739;50.350;7.578;2022-12-29T14:52:30;7.60;;;2.10;;
47882;SDS011;37739;50.350;7.578;2022-12-29T14:57:44;5.67;;;3.10;;
47882;SDS011;37739;50.350;7.578;2022-12-29T15:00:16;4.10;;;2.73;;
47882;SDS011;37739;50.350;7.578;2022-12-29T15:02:46;3.10;;;1.43;;
47882;SDS011;37739;50.350;7.578;2022-12-29T15:08:16;3.17;;;1.47;;
47882;SDS011;37739;50.350;7.578;2022-12-29T15:10:45;4.60;;;2.33;;
47882;SDS011;37739;50.350;7.578;2022-12-29T15:13:18;3.43;;;1.67;;
47882;SDS011;37739;50.350;7.578;2022-12-29T15:15:47;4.00;;;1.30;;
47882;SDS011;37739;50.350;7.578;2022-12-29T15:18:29;4.00;;;2.87;;
47882;SDS011;37739;50.350;7.578;2022-12-29T15:20:56;2.47;;;1.70;;
47882;SDS011;37739;50.350;7.578;2022-12-29T15:23:26;5.27;;;2.37;;
47882;SDS011;37739;50.350;7.578;2022-12-29T15:25:56;4.47;;;2.10;;
47882;SDS011;37739;50.350;7.578;2022-12-29T15:28:25;5.63;;;3.67;;
47882;SDS011;37739;50.350;7.578;2022-12-29T15:30:56;6.70;;;3.20;;
47882;SDS011;37739;50.350;7.578;2022-12-29T15:33:29;4.50;;;3.00;;
47882;SDS011;37739;50.350;7.578;2022-12-29T15:35:55;4.20;;;1.90;;
47882;SDS011;37739;50.350;7.578;2022-12-29T15:38:23;2.43;;;1.73;;
47882;SDS011;37739;50.350;7.578;2022-12-29T15:40:53;4.17;;;1.10;;
47882;SDS011;37739;50.350;7.578;2022-12-29T15:45:56;4.30;;;1.63;;
47882;SDS011;37739;50.350;7.578;2022-12-29T15:48:23;2.53;;;1.13;;
47882;SDS011;37739;50.350;7.578;2022-12-29T15:50:52;2.93;;;1.13;;
47882;SDS011;37739;50.350;7.578;2022-12-29T15:53:21;3.70;;;1.10;;
47882;SDS011;37739;50.350;7.578;2022-12-29T15:55:55;2.50;;;1.50;;
47882;SDS011;37739;50.350;7.578;2022-12-29T15:58:30;3.30;;;1.50;;
47882;SDS011;37739;50.350;7.578;2022-12-29T16:01:03;5.10;;;2.33;;
47882;SDS011;37739;50.350;7.578;2022-12-29T16:03:31;4.40;;;2.00;;
47882;SDS011;37739;50.350;7.578;2022-12-29T16:06:08;3.03;;;1.50;;
47882;SDS011;37739;50.350;7.578;2022-12-29T16:08:37;6.43;;;1.43;;
47882;SDS011;37739;50.350;7.578;2022-12-29T16:11:17;2.10;;;1.50;;
47882;SDS011;37739;50.350;7.578;2022-12-29T16:13:50;3.43;;;1.90;;
47882;SDS011;37739;50.350;7.578;2022-12-29T16:16:20;3.73;;;1.30;;
47882;SDS011;37739;50.350;7.578;2022-12-29T16:18:50;3.70;;;1.80;;
47882;SDS011;37739;50.350;7.578;2022-12-29T16:21:19;2.40;;;1.33;;
47882;SDS011;37739;50.350;7.578;2022-12-29T16:23:48;3.13;;;1.60;;
47882;SDS011;37739;50.350;7.578;2022-12-29T16:26:16;5.17;;;1.50;;
47882;SDS011;37739;50.350;7.578;2022-12-29T16:28:46;2.77;;;1.63;;
47882;SDS011;37739;50.350;7.578;2022-12-29T16:31:21;5.40;;;1.50;;
47882;SDS011;37739;50.350;7.578;2022-12-29T16:33:52;3.63;;;1.50;;
47882;SDS011;37739;50.350;7.578;2022-12-29T16:38:50;2.90;;;1.47;;
47882;SDS011;37739;50.350;7.578;2022-12-29T16:41:30;4.63;;;1.77;;
47882;SDS011;37739;50.350;7.578;2022-12-29T16:49:43;4.53;;;1.70;;
47882;SDS011;37739;50.350;7.578;2022-12-29T16:54:51;4.50;;;1.97;;
47882;SDS011;37739;50.350;7.578;2022-12-29T16:57:27;5.00;;;2.10;;
47882;SDS011;37739;50.350;7.578;2022-12-29T16:59:56;4.00;;;1.70;;
47882;SDS011;37739;50.350;7.578;2022-12-29T17:02:28;4.90;;;1.80;;
47882;SDS011;37739;50.350;7.578;2022-12-29T17:04:55;6.50;;;1.80;;
47882;SDS011;37739;50.350;7.578;2022-12-29T17:07:22;3.70;;;1.50;;
47882;SDS011;37739;50.350;7.578;2022-12-29T17:09:51;6.10;;;1.97;;
47882;SDS011;37739;50.350;7.578;2022-12-29T17:12:19;5.83;;;2.00;;
47882;SDS011;37739;50.350;7.578;2022-12-29T17:14:54;4.90;;;2.23;;
47882;SDS011;37739;50.350;7.578;2022-12-29T17:22:45;3.03;;;1.83;;
47882;SDS011;37739;50.350;7.578;2022-12-29T17:25:11;3.13;;;2.13;;
47882;SDS011;37739;50.350;7.578;2022-12-29T17:27:41;2.60;;;1.73;;
47882;SDS011;37739;50.350;7.578;2022-12-29T17:30:14;5.47;;;2.03;;
47882;SDS011;37739;50.350;7.578;2022-12-29T17:32:53;2.77;;;1.90;;
47882;SDS011;37739;50.350;7.578;2022-12-29T17:35:26;4.87;;;2.07;;
47882;SDS011;37739;50.350;7.578;2022-12-29T17:37:52;5.20;;;2.00;;
47882;SDS011;37739;50.350;7.578;2022-12-29T17:40:21;4.20;;;2.07;;
47882;SDS011;37739;50.350;7.578;2022-12-29T17:42:54;6.53;;;1.87;;
47882;SDS011;37739;50.350;7.578;2022-12-29T17:45:27;4.80;;;2.17;;
47882;SDS011;37739;50.350;7.578;2022-12-29T17:47:54;3.70;;;2.20;;
47882;SDS011;37739;50.350;7.578;2022-12-29T17:50:25;5.17;;;2.50;;
47882;SDS011;37739;50.350;7.578;2022-12-29T17:52:57;6.60;;;2.50;;
47882;SDS011;37739;50.350;7.578;2022-12-29T17:55:27;3.60;;;2.60;;
47882;SDS011;37739;50.350;7.578;2022-12-29T17:57:53;6.43;;;3.63;;